sensor_id;sensor_type;location;lat;lon;timestamp;P1;durP1;ratioP1;P2;durP2;ratioP2
35893;SDS011;21994;48.204;16.516;2022-08-23T00:01:58;1.00;;;0.77;;
35893;SDS011;21994;48.204;16.516;2022-08-23T00:04:33;1.80;;;0.80;;
35893;SDS011;21994;48.204;16.516;2022-08-23T00:07:05;1.17;;;0.75;;
35893;SDS011;21994;48.204;16.516;2022-08-23T00:09:33;1.00;;;0.82;;
35893;SDS011;21994;48.204;16.516;2022-08-23T00:12:10;1.30;;;0.80;;
35893;SDS011;21994;48.204;16.516;2022-08-23T00:14:43;1.50;;;0.77;;
35893;SDS011;21994;48.204;16.516;2022-08-23T00:17:14;2.25;;;0.80;;
35893;SDS011;21994;48.204;16.516;2022-08-23T00:19:40;1.23;;;0.90;;
35893;SDS011;21994;48.204;16.516;2022-08-23T00:22:07;2.47;;;0.77;;
35893;SDS011;21994;48.204;16.516;2022-08-23T00:24:34;1.42;;;0.93;;
35893;SDS011;21994;48.204;16.516;2022-08-23T00:27:02;1.20;;;0.80;;
35893;SDS011;21994;48.204;16.516;2022-08-23T00:29:48;1.85;;;0.80;;
35893;SDS011;21994;48.204;16.516;2022-08-23T00:32:24;1.20;;;0.82;;
35893;SDS011;21994;48.204;16.516;2022-08-23T00:35:00;1.40;;;0.70;;
35893;SDS011;21994;48.204;16.516;2022-08-23T00:37:30;0.88;;;0.60;;
35893;SDS011;21994;48.204;16.516;2022-08-23T00:39:57;1.23;;;0.90;;
35893;SDS011;21994;48.204;16.516;2022-08-23T00:48:57;1.38;;;0.90;;
35893;SDS011;21994;48.204;16.516;2022-08-23T00:51:28;0.80;;;0.75;;
35893;SDS011;21994;48.204;16.516;2022-08-23T00:54:12;0.47;;;0.43;;
35893;SDS011;21994;48.204;16.516;2022-08-23T00:56:40;1.05;;;0.57;;
35893;SDS011;21994;48.204;16.516;2022-08-23T00:59:07;0.75;;;0.50;;
35893;SDS011;21994;48.204;16.516;2022-08-23T01:01:33;0.77;;;0.50;;
35893;SDS011;21994;48.204;16.516;2022-08-23T01:04:00;1.25;;;0.68;;
35893;SDS011;21994;48.204;16.516;2022-08-23T01:06:34;0.55;;;0.55;;
35893;SDS011;21994;48.204;16.516;2022-08-23T01:09:13;2.30;;;0.70;;
35893;SDS011;21994;48.204;16.516;2022-08-23T01:12:02;1.15;;;0.77;;
35893;SDS011;21994;48.204;16.516;2022-08-23T01:14:43;1.10;;;0.60;;
35893;SDS011;21994;48.204;16.516;2022-08-23T01:17:26;1.13;;;0.60;;
35893;SDS011;21994;48.204;16.516;2022-08-23T01:20:02;1.08;;;0.60;;
35893;SDS011;21994;48.204;16.516;2022-08-23T01:25:45;1.10;;;0.60;;
35893;SDS011;21994;48.204;16.516;2022-08-23T01:28:11;1.38;;;0.70;;
35893;SDS011;21994;48.204;16.516;2022-08-23T01:30:37;1.65;;;0.65;;
35893;SDS011;21994;48.204;16.516;2022-08-23T01:33:05;3.80;;;0.80;;
35893;SDS011;21994;48.204;16.516;2022-08-23T01:35:39;1.10;;;0.50;;
35893;SDS011;21994;48.204;16.516;2022-08-23T01:38:10;1.08;;;0.60;;
35893;SDS011;21994;48.204;16.516;2022-08-23T01:40:37;1.00;;;0.57;;
35893;SDS011;21994;48.204;16.516;2022-08-23T01:43:04;1.45;;;0.57;;
35893;SDS011;21994;48.204;16.516;2022-08-23T01:45:32;0.88;;;0.60;;
35893;SDS011;21994;48.204;16.516;2022-08-23T01:47:58;0.85;;;0.60;;
35893;SDS011;21994;48.204;16.516;2022-08-23T01:50:26;1.45;;;0.80;;
35893;SDS011;21994;48.204;16.516;2022-08-23T01:52:53;1.17;;;0.60;;
35893;SDS011;21994;48.204;16.516;2022-08-23T01:55:19;1.52;;;0.63;;
35893;SDS011;21994;48.204;16.516;2022-08-23T01:57:46;1.73;;;0.80;;
35893;SDS011;21994;48.204;16.516;2022-08-23T02:00:17;2.35;;;0.75;;
35893;SDS011;21994;48.204;16.516;2022-08-23T02:02:46;1.38;;;0.70;;
35893;SDS011;21994;48.204;16.516;2022-08-23T02:05:15;0.88;;;0.63;;
35893;SDS011;21994;48.204;16.516;2022-08-23T02:07:42;0.95;;;0.60;;
35893;SDS011;21994;48.204;16.516;2022-08-23T02:10:08;1.23;;;0.63;;
35893;SDS011;21994;48.204;16.516;2022-08-23T02:12:35;1.02;;;0.70;;
35893;SDS011;21994;48.204;16.516;2022-08-23T02:15:02;1.00;;;0.60;;
35893;SDS011;21994;48.204;16.516;2022-08-23T02:17:29;1.35;;;0.80;;
35893;SDS011;21994;48.204;16.516;2022-08-23T02:19:54;1.85;;;1.05;;
35893;SDS011;21994;48.204;16.516;2022-08-23T02:22:20;1.40;;;0.57;;
35893;SDS011;21994;48.204;16.516;2022-08-23T02:24:46;1.20;;;0.68;;
35893;SDS011;21994;48.204;16.516;2022-08-23T02:27:13;1.05;;;0.60;;
35893;SDS011;21994;48.204;16.516;2022-08-23T02:29:41;1.30;;;0.70;;
35893;SDS011;21994;48.204;16.516;2022-08-23T02:32:10;1.90;;;0.70;;
35893;SDS011;21994;48.204;16.516;2022-08-23T02:34:38;2.08;;;0.80;;
35893;SDS011;21994;48.204;16.516;2022-08-23T02:37:06;0.68;;;0.50;;
35893;SDS011;21994;48.204;16.516;2022-08-23T02:39:34;1.20;;;0.57;;
35893;SDS011;21994;48.204;16.516;2022-08-23T02:42:01;1.27;;;0.70;;
35893;SDS011;21994;48.204;16.516;2022-08-23T02:44:28;1.25;;;0.70;;
35893;SDS011;21994;48.204;16.516;2022-08-23T02:46:55;3.67;;;0.45;;
35893;SDS011;21994;48.204;16.516;2022-08-23T02:49:21;2.08;;;0.52;;
35893;SDS011;21994;48.204;16.516;2022-08-23T02:51:47;0.98;;;0.68;;
35893;SDS011;21994;48.204;16.516;2022-08-23T02:54:13;1.33;;;0.70;;
35893;SDS011;21994;48.204;16.516;2022-08-23T02:56:38;1.35;;;0.80;;
35893;SDS011;21994;48.204;16.516;2022-08-23T02:59:05;1.23;;;0.80;;
35893;SDS011;21994;48.204;16.516;2022-08-23T03:01:32;1.27;;;0.80;;
35893;SDS011;21994;48.204;16.516;2022-08-23T03:04:02;0.80;;;0.50;;
35893;SDS011;21994;48.204;16.516;2022-08-23T03:06:31;1.17;;;0.45;;
35893;SDS011;21994;48.204;16.516;2022-08-23T03:08:57;1.13;;;0.70;;
35893;SDS011;21994;48.204;16.516;2022-08-23T03:11:23;2.92;;;0.70;;
35893;SDS011;21994;48.204;16.516;2022-08-23T03:13:51;0.82;;;0.63;;
35893;SDS011;21994;48.204;16.516;2022-08-23T03:16:20;1.70;;;0.73;;
35893;SDS011;21994;48.204;16.516;2022-08-23T03:18:46;1.30;;;0.70;;
35893;SDS011;21994;48.204;16.516;2022-08-23T03:21:13;1.92;;;0.82;;
35893;SDS011;21994;48.204;16.516;2022-08-23T03:23:40;1.38;;;0.90;;
35893;SDS011;21994;48.204;16.516;2022-08-23T03:26:07;1.50;;;0.73;;
35893;SDS011;21994;48.204;16.516;2022-08-23T03:28:35;1.25;;;0.60;;
35893;SDS011;21994;48.204;16.516;2022-08-23T03:31:03;1.40;;;0.80;;
35893;SDS011;21994;48.204;16.516;2022-08-23T03:33:30;1.27;;;0.82;;
35893;SDS011;21994;48.204;16.516;2022-08-23T03:35:57;1.30;;;0.73;;
35893;SDS011;21994;48.204;16.516;2022-08-23T03:38:25;0.60;;;0.40;;
35893;SDS011;21994;48.204;16.516;2022-08-23T03:40:51;1.70;;;0.90;;
35893;SDS011;21994;48.204;16.516;2022-08-23T03:43:18;1.88;;;1.00;;
35893;SDS011;21994;48.204;16.516;2022-08-23T03:45:44;2.55;;;1.23;;
35893;SDS011;21994;48.204;16.516;2022-08-23T03:48:10;2.75;;;1.23;;
35893;SDS011;21994;48.204;16.516;2022-08-23T03:50:37;2.00;;;1.15;;
35893;SDS011;21994;48.204;16.516;2022-08-23T03:53:03;2.35;;;1.23;;
35893;SDS011;21994;48.204;16.516;2022-08-23T03:55:29;3.10;;;1.38;;
35893;SDS011;21994;48.204;16.516;2022-08-23T03:57:54;3.75;;;1.27;;
35893;SDS011;21994;48.204;16.516;2022-08-23T04:00:21;1.92;;;0.90;;
35893;SDS011;21994;48.204;16.516;2022-08-23T04:02:47;2.25;;;0.95;;
35893;SDS011;21994;48.204;16.516;2022-08-23T04:05:13;3.13;;;1.05;;
35893;SDS011;21994;48.204;16.516;2022-08-23T04:07:39;2.38;;;1.17;;
35893;SDS011;21994;48.204;16.516;2022-08-23T04:10:06;1.83;;;1.20;;
35893;SDS011;21994;48.204;16.516;2022-08-23T04:12:34;1.92;;;1.00;;
35893;SDS011;21994;48.204;16.516;2022-08-23T04:15:00;2.08;;;1.23;;
35893;SDS011;21994;48.204;16.516;2022-08-23T04:17:27;2.78;;;1.38;;
35893;SDS011;21994;48.204;16.516;2022-08-23T04:19:53;2.35;;;1.27;;
35893;SDS011;21994;48.204;16.516;2022-08-23T04:22:19;2.63;;;1.52;;
35893;SDS011;21994;48.204;16.516;2022-08-23T04:24:45;2.47;;;1.02;;
35893;SDS011;21994;48.204;16.516;2022-08-23T04:27:12;3.70;;;1.38;;
35893;SDS011;21994;48.204;16.516;2022-08-23T04:29:38;2.55;;;1.58;;
35893;SDS011;21994;48.204;16.516;2022-08-23T04:32:06;2.90;;;1.40;;
35893;SDS011;21994;48.204;16.516;2022-08-23T04:34:36;3.00;;;1.55;;
35893;SDS011;21994;48.204;16.516;2022-08-23T04:37:07;3.38;;;1.80;;
35893;SDS011;21994;48.204;16.516;2022-08-23T04:39:35;2.80;;;1.60;;
35893;SDS011;21994;48.204;16.516;2022-08-23T04:42:22;2.38;;;1.50;;
35893;SDS011;21994;48.204;16.516;2022-08-23T04:44:48;2.40;;;1.50;;
35893;SDS011;21994;48.204;16.516;2022-08-23T04:47:15;2.92;;;1.75;;
35893;SDS011;21994;48.204;16.516;2022-08-23T04:49:41;2.85;;;1.63;;
35893;SDS011;21994;48.204;16.516;2022-08-23T04:52:07;2.50;;;1.50;;
35893;SDS011;21994;48.204;16.516;2022-08-23T04:54:33;4.03;;;1.60;;
35893;SDS011;21994;48.204;16.516;2022-08-23T04:56:59;2.88;;;1.58;;
35893;SDS011;21994;48.204;16.516;2022-08-23T04:59:25;2.83;;;1.90;;
35893;SDS011;21994;48.204;16.516;2022-08-23T05:01:50;5.13;;;2.00;;
35893;SDS011;21994;48.204;16.516;2022-08-23T05:04:17;2.38;;;1.60;;
35893;SDS011;21994;48.204;16.516;2022-08-23T05:06:43;3.83;;;1.40;;
35893;SDS011;21994;48.204;16.516;2022-08-23T05:09:09;6.30;;;1.88;;
35893;SDS011;21994;48.204;16.516;2022-08-23T05:11:35;3.38;;;1.58;;
35893;SDS011;21994;48.204;16.516;2022-08-23T05:14:01;2.22;;;1.75;;
35893;SDS011;21994;48.204;16.516;2022-08-23T05:16:28;2.95;;;1.20;;
35893;SDS011;21994;48.204;16.516;2022-08-23T05:18:54;1.92;;;1.08;;
35893;SDS011;21994;48.204;16.516;2022-08-23T05:21:21;2.45;;;1.80;;
35893;SDS011;21994;48.204;16.516;2022-08-23T05:23:49;3.05;;;1.73;;
35893;SDS011;21994;48.204;16.516;2022-08-23T05:26:15;1.95;;;1.27;;
35893;SDS011;21994;48.204;16.516;2022-08-23T05:28:43;2.15;;;1.38;;
35893;SDS011;21994;48.204;16.516;2022-08-23T05:31:16;2.65;;;1.20;;
35893;SDS011;21994;48.204;16.516;2022-08-23T05:33:48;2.50;;;1.50;;
35893;SDS011;21994;48.204;16.516;2022-08-23T05:36:15;2.28;;;1.50;;
35893;SDS011;21994;48.204;16.516;2022-08-23T05:38:43;3.33;;;1.48;;
35893;SDS011;21994;48.204;16.516;2022-08-23T05:41:11;3.08;;;1.70;;
35893;SDS011;21994;48.204;16.516;2022-08-23T05:43:38;4.40;;;1.85;;
35893;SDS011;21994;48.204;16.516;2022-08-23T05:48:37;4.13;;;1.90;;
35893;SDS011;21994;48.204;16.516;2022-08-23T05:51:15;2.33;;;1.38;;
35893;SDS011;21994;48.204;16.516;2022-08-23T05:53:52;2.95;;;1.50;;
35893;SDS011;21994;48.204;16.516;2022-08-23T05:56:41;2.30;;;1.30;;
35893;SDS011;21994;48.204;16.516;2022-08-23T05:59:10;2.22;;;1.27;;
35893;SDS011;21994;48.204;16.516;2022-08-23T06:01:40;2.22;;;1.50;;
35893;SDS011;21994;48.204;16.516;2022-08-23T06:04:08;2.45;;;1.40;;
35893;SDS011;21994;48.204;16.516;2022-08-23T06:06:37;3.05;;;1.88;;
35893;SDS011;21994;48.204;16.516;2022-08-23T06:09:05;4.15;;;1.90;;
35893;SDS011;21994;48.204;16.516;2022-08-23T06:14:02;4.95;;;2.20;;
35893;SDS011;21994;48.204;16.516;2022-08-23T06:16:31;2.97;;;1.48;;
35893;SDS011;21994;48.204;16.516;2022-08-23T06:19:04;1.80;;;1.33;;
35893;SDS011;21994;48.204;16.516;2022-08-23T06:21:33;3.08;;;1.92;;
35893;SDS011;21994;48.204;16.516;2022-08-23T06:24:00;3.08;;;2.15;;
35893;SDS011;21994;48.204;16.516;2022-08-23T06:26:28;4.72;;;2.33;;
35893;SDS011;21994;48.204;16.516;2022-08-23T06:28:58;2.78;;;1.73;;
35893;SDS011;21994;48.204;16.516;2022-08-23T06:31:28;3.30;;;2.17;;
35893;SDS011;21994;48.204;16.516;2022-08-23T06:34:16;2.70;;;1.67;;
35893;SDS011;21994;48.204;16.516;2022-08-23T06:37:12;2.90;;;1.90;;
35893;SDS011;21994;48.204;16.516;2022-08-23T06:39:39;3.97;;;2.28;;
35893;SDS011;21994;48.204;16.516;2022-08-23T06:42:07;2.78;;;1.80;;
35893;SDS011;21994;48.204;16.516;2022-08-23T06:44:42;3.63;;;1.85;;
35893;SDS011;21994;48.204;16.516;2022-08-23T06:47:08;3.10;;;2.13;;
35893;SDS011;21994;48.204;16.516;2022-08-23T06:49:34;3.17;;;2.22;;
35893;SDS011;21994;48.204;16.516;2022-08-23T06:52:00;4.05;;;2.30;;
35893;SDS011;21994;48.204;16.516;2022-08-23T06:54:31;4.13;;;2.13;;
35893;SDS011;21994;48.204;16.516;2022-08-23T06:56:59;3.20;;;2.10;;
35893;SDS011;21994;48.204;16.516;2022-08-23T06:59:26;2.80;;;1.70;;
35893;SDS011;21994;48.204;16.516;2022-08-23T07:01:54;3.45;;;2.10;;
35893;SDS011;21994;48.204;16.516;2022-08-23T07:04:24;3.13;;;2.22;;
35893;SDS011;21994;48.204;16.516;2022-08-23T07:06:54;2.90;;;1.80;;
35893;SDS011;21994;48.204;16.516;2022-08-23T07:09:20;3.60;;;2.03;;
35893;SDS011;21994;48.204;16.516;2022-08-23T07:11:47;3.97;;;1.85;;
35893;SDS011;21994;48.204;16.516;2022-08-23T07:14:14;3.42;;;2.15;;
35893;SDS011;21994;48.204;16.516;2022-08-23T07:16:43;5.55;;;2.10;;
35893;SDS011;21994;48.204;16.516;2022-08-23T07:19:16;2.70;;;1.67;;
35893;SDS011;21994;48.204;16.516;2022-08-23T07:21:44;2.30;;;1.50;;
35893;SDS011;21994;48.204;16.516;2022-08-23T07:24:10;2.40;;;1.60;;
35893;SDS011;21994;48.204;16.516;2022-08-23T07:26:38;3.58;;;2.03;;
35893;SDS011;21994;48.204;16.516;2022-08-23T07:29:06;2.20;;;1.30;;
35893;SDS011;21994;48.204;16.516;2022-08-23T07:31:34;2.75;;;1.40;;
35893;SDS011;21994;48.204;16.516;2022-08-23T07:34:06;2.35;;;1.20;;
35893;SDS011;21994;48.204;16.516;2022-08-23T07:36:33;2.30;;;1.52;;
35893;SDS011;21994;48.204;16.516;2022-08-23T07:39:00;2.97;;;1.48;;
35893;SDS011;21994;48.204;16.516;2022-08-23T07:41:27;1.90;;;1.33;;
35893;SDS011;21994;48.204;16.516;2022-08-23T07:43:59;1.77;;;1.33;;
35893;SDS011;21994;48.204;16.516;2022-08-23T07:46:27;2.63;;;1.85;;
35893;SDS011;21994;48.204;16.516;2022-08-23T07:48:57;1.70;;;1.10;;
35893;SDS011;21994;48.204;16.516;2022-08-23T07:51:26;1.63;;;1.13;;
35893;SDS011;21994;48.204;16.516;2022-08-23T07:53:54;2.75;;;1.80;;
35893;SDS011;21994;48.204;16.516;2022-08-23T07:56:22;1.85;;;1.17;;
35893;SDS011;21994;48.204;16.516;2022-08-23T07:58:48;1.80;;;1.10;;
35893;SDS011;21994;48.204;16.516;2022-08-23T08:01:21;2.58;;;1.17;;
35893;SDS011;21994;48.204;16.516;2022-08-23T08:03:51;1.42;;;0.80;;
35893;SDS011;21994;48.204;16.516;2022-08-23T08:06:23;1.15;;;0.70;;
35893;SDS011;21994;48.204;16.516;2022-08-23T08:09:14;1.00;;;0.70;;
35893;SDS011;21994;48.204;16.516;2022-08-23T08:11:43;1.88;;;0.63;;
35893;SDS011;21994;48.204;16.516;2022-08-23T08:14:12;1.88;;;0.88;;
35893;SDS011;21994;48.204;16.516;2022-08-23T08:16:40;1.10;;;0.63;;
35893;SDS011;21994;48.204;16.516;2022-08-23T08:19:11;1.42;;;0.80;;
35893;SDS011;21994;48.204;16.516;2022-08-23T08:21:39;1.00;;;0.60;;
35893;SDS011;21994;48.204;16.516;2022-08-23T08:24:07;2.28;;;0.90;;
35893;SDS011;21994;48.204;16.516;2022-08-23T08:26:35;0.73;;;0.60;;
35893;SDS011;21994;48.204;16.516;2022-08-23T08:29:01;1.98;;;0.60;;
35893;SDS011;21994;48.204;16.516;2022-08-23T08:31:28;0.57;;;0.50;;
35893;SDS011;21994;48.204;16.516;2022-08-23T08:33:54;1.00;;;0.60;;
35893;SDS011;21994;48.204;16.516;2022-08-23T08:36:39;1.58;;;0.50;;
35893;SDS011;21994;48.204;16.516;2022-08-23T08:39:18;0.82;;;0.40;;
35893;SDS011;21994;48.204;16.516;2022-08-23T08:44:50;0.68;;;0.40;;
35893;SDS011;21994;48.204;16.516;2022-08-23T08:49:59;0.32;;;0.32;;
35893;SDS011;21994;48.204;16.516;2022-08-23T08:52:37;1.30;;;0.55;;
35893;SDS011;21994;48.204;16.516;2022-08-23T08:55:13;1.05;;;0.60;;
35893;SDS011;21994;48.204;16.516;2022-08-23T08:57:45;1.10;;;0.50;;
35893;SDS011;21994;48.204;16.516;2022-08-23T09:00:21;0.60;;;0.40;;
35893;SDS011;21994;48.204;16.516;2022-08-23T09:02:50;1.52;;;0.60;;
35893;SDS011;21994;48.204;16.516;2022-08-23T09:05:25;0.88;;;0.43;;
35893;SDS011;21994;48.204;16.516;2022-08-23T09:19:15;1.67;;;0.80;;
35893;SDS011;21994;48.204;16.516;2022-08-23T09:21:44;1.48;;;0.70;;
35893;SDS011;21994;48.204;16.516;2022-08-23T09:26:39;0.98;;;0.50;;
35893;SDS011;21994;48.204;16.516;2022-08-23T09:29:18;1.15;;;0.90;;
35893;SDS011;21994;48.204;16.516;2022-08-23T09:39:34;1.75;;;1.00;;
35893;SDS011;21994;48.204;16.516;2022-08-23T09:42:03;1.35;;;1.00;;
35893;SDS011;21994;48.204;16.516;2022-08-23T09:44:51;2.08;;;1.13;;
35893;SDS011;21994;48.204;16.516;2022-08-23T09:47:18;2.97;;;1.20;;
35893;SDS011;21994;48.204;16.516;2022-08-23T09:49:44;1.70;;;1.10;;
35893;SDS011;21994;48.204;16.516;2022-08-23T09:54:53;3.70;;;1.30;;
35893;SDS011;21994;48.204;16.516;2022-08-23T09:57:27;2.03;;;1.27;;
35893;SDS011;21994;48.204;16.516;2022-08-23T10:00:02;1.80;;;1.50;;
35893;SDS011;21994;48.204;16.516;2022-08-23T10:03:17;1.80;;;1.20;;
35893;SDS011;21994;48.204;16.516;2022-08-23T10:05:54;1.73;;;1.30;;
35893;SDS011;21994;48.204;16.516;2022-08-23T10:08:24;1.98;;;1.45;;
35893;SDS011;21994;48.204;16.516;2022-08-23T10:13:40;2.70;;;1.10;;
35893;SDS011;21994;48.204;16.516;2022-08-23T10:16:11;2.15;;;1.23;;
35893;SDS011;21994;48.204;16.516;2022-08-23T10:18:53;2.22;;;1.40;;
35893;SDS011;21994;48.204;16.516;2022-08-23T10:22:00;3.67;;;1.63;;
35893;SDS011;21994;48.204;16.516;2022-08-23T10:25:09;3.72;;;1.90;;
35893;SDS011;21994;48.204;16.516;2022-08-23T10:27:54;3.60;;;1.48;;
35893;SDS011;21994;48.204;16.516;2022-08-23T10:33:45;2.33;;;1.25;;
35893;SDS011;21994;48.204;16.516;2022-08-23T10:39:29;2.70;;;1.60;;
35893;SDS011;21994;48.204;16.516;2022-08-23T10:47:52;1.80;;;1.27;;
35893;SDS011;21994;48.204;16.516;2022-08-23T10:50:55;1.92;;;1.00;;
35893;SDS011;21994;48.204;16.516;2022-08-23T10:56:16;1.55;;;1.00;;
35893;SDS011;21994;48.204;16.516;2022-08-23T10:58:46;1.80;;;1.10;;
35893;SDS011;21994;48.204;16.516;2022-08-23T11:01:20;0.73;;;0.70;;
35893;SDS011;21994;48.204;16.516;2022-08-23T11:03:59;1.17;;;0.82;;
35893;SDS011;21994;48.204;16.516;2022-08-23T11:06:47;1.48;;;0.90;;
35893;SDS011;21994;48.204;16.516;2022-08-23T11:17:33;1.40;;;1.10;;
35893;SDS011;21994;48.204;16.516;2022-08-23T11:31:56;0.88;;;0.77;;
35893;SDS011;21994;48.204;16.516;2022-08-23T11:34:34;1.35;;;0.80;;
35893;SDS011;21994;48.204;16.516;2022-08-23T11:42:25;1.38;;;0.80;;
35893;SDS011;21994;48.204;16.516;2022-08-23T11:45:02;1.00;;;0.73;;
35893;SDS011;21994;48.204;16.516;2022-08-23T11:47:52;1.20;;;0.85;;
35893;SDS011;21994;48.204;16.516;2022-08-23T11:51:00;1.48;;;0.80;;
35893;SDS011;21994;48.204;16.516;2022-08-23T12:02:24;1.55;;;1.00;;
35893;SDS011;21994;48.204;16.516;2022-08-23T12:05:00;1.63;;;1.15;;
35893;SDS011;21994;48.204;16.516;2022-08-23T12:23:59;1.63;;;0.88;;
35893;SDS011;21994;48.204;16.516;2022-08-23T12:30:09;1.63;;;1.10;;
35893;SDS011;21994;48.204;16.516;2022-08-23T12:35:44;1.55;;;1.00;;
35893;SDS011;21994;48.204;16.516;2022-08-23T12:40:52;1.73;;;1.08;;
35893;SDS011;21994;48.204;16.516;2022-08-23T12:43:21;1.70;;;1.40;;
35893;SDS011;21994;48.204;16.516;2022-08-23T12:45:55;1.92;;;1.20;;
35893;SDS011;21994;48.204;16.516;2022-08-23T12:48:27;1.77;;;1.20;;
35893;SDS011;21994;48.204;16.516;2022-08-23T12:51:01;1.50;;;1.35;;
35893;SDS011;21994;48.204;16.516;2022-08-23T12:53:34;1.50;;;1.08;;
35893;SDS011;21994;48.204;16.516;2022-08-23T12:56:17;1.23;;;1.08;;
35893;SDS011;21994;48.204;16.516;2022-08-23T12:58:49;1.35;;;1.20;;
35893;SDS011;21994;48.204;16.516;2022-08-23T13:01:22;1.08;;;0.98;;
35893;SDS011;21994;48.204;16.516;2022-08-23T13:03:53;2.13;;;1.15;;
35893;SDS011;21994;48.204;16.516;2022-08-23T13:06:30;1.40;;;1.20;;
35893;SDS011;21994;48.204;16.516;2022-08-23T13:11:45;1.70;;;1.17;;
35893;SDS011;21994;48.204;16.516;2022-08-23T13:17:33;2.92;;;1.65;;
35893;SDS011;21994;48.204;16.516;2022-08-23T13:22:53;2.95;;;1.48;;
35893;SDS011;21994;48.204;16.516;2022-08-23T13:25:27;1.73;;;1.10;;
35893;SDS011;21994;48.204;16.516;2022-08-23T13:28:07;2.25;;;1.40;;
35893;SDS011;21994;48.204;16.516;2022-08-23T13:31:03;2.17;;;1.05;;
35893;SDS011;21994;48.204;16.516;2022-08-23T13:33:32;1.40;;;1.15;;
35893;SDS011;21994;48.204;16.516;2022-08-23T13:36:06;1.50;;;0.98;;
35893;SDS011;21994;48.204;16.516;2022-08-23T13:38:39;1.67;;;0.93;;
35893;SDS011;21994;48.204;16.516;2022-08-23T13:41:08;1.70;;;1.10;;
35893;SDS011;21994;48.204;16.516;2022-08-23T13:43:55;2.00;;;1.27;;
35893;SDS011;21994;48.204;16.516;2022-08-23T13:46:23;2.25;;;1.63;;
35893;SDS011;21994;48.204;16.516;2022-08-23T13:49:09;1.27;;;1.13;;
35893;SDS011;21994;48.204;16.516;2022-08-23T13:56:54;2.35;;;0.90;;
35893;SDS011;21994;48.204;16.516;2022-08-23T14:02:17;1.73;;;1.00;;
35893;SDS011;21994;48.204;16.516;2022-08-23T14:04:46;1.58;;;1.10;;
35893;SDS011;21994;48.204;16.516;2022-08-23T14:07:12;1.48;;;0.90;;
35893;SDS011;21994;48.204;16.516;2022-08-23T14:09:39;1.15;;;0.90;;
35893;SDS011;21994;48.204;16.516;2022-08-23T14:12:09;1.02;;;0.80;;
35893;SDS011;21994;48.204;16.516;2022-08-23T14:14:39;2.40;;;0.95;;
35893;SDS011;21994;48.204;16.516;2022-08-23T14:17:06;1.70;;;0.80;;
35893;SDS011;21994;48.204;16.516;2022-08-23T14:19:34;2.22;;;1.10;;
35893;SDS011;21994;48.204;16.516;2022-08-23T14:22:00;1.23;;;0.90;;
35893;SDS011;21994;48.204;16.516;2022-08-23T14:24:26;1.00;;;0.88;;
35893;SDS011;21994;48.204;16.516;2022-08-23T14:26:52;1.77;;;0.93;;
35893;SDS011;21994;48.204;16.516;2022-08-23T14:29:20;1.30;;;1.10;;
35893;SDS011;21994;48.204;16.516;2022-08-23T14:31:46;0.82;;;0.57;;
35893;SDS011;21994;48.204;16.516;2022-08-23T14:34:12;2.22;;;1.30;;
35893;SDS011;21994;48.204;16.516;2022-08-23T14:36:38;1.17;;;0.82;;
35893;SDS011;21994;48.204;16.516;2022-08-23T14:39:04;0.93;;;0.82;;
35893;SDS011;21994;48.204;16.516;2022-08-23T14:41:30;1.98;;;1.38;;
35893;SDS011;21994;48.204;16.516;2022-08-23T14:43:56;1.52;;;0.90;;
35893;SDS011;21994;48.204;16.516;2022-08-23T14:46:22;1.63;;;0.88;;
35893;SDS011;21994;48.204;16.516;2022-08-23T14:48:48;1.90;;;0.88;;
35893;SDS011;21994;48.204;16.516;2022-08-23T14:51:25;1.67;;;1.00;;
35893;SDS011;21994;48.204;16.516;2022-08-23T14:53:58;2.60;;;0.95;;
35893;SDS011;21994;48.204;16.516;2022-08-23T14:56:27;1.73;;;1.58;;
35893;SDS011;21994;48.204;16.516;2022-08-23T14:58:54;1.10;;;0.90;;
35893;SDS011;21994;48.204;16.516;2022-08-23T15:01:21;2.50;;;1.08;;
35893;SDS011;21994;48.204;16.516;2022-08-23T15:03:47;1.60;;;1.08;;
35893;SDS011;21994;48.204;16.516;2022-08-23T15:06:15;1.30;;;1.00;;
35893;SDS011;21994;48.204;16.516;2022-08-23T15:08:44;2.13;;;1.15;;
35893;SDS011;21994;48.204;16.516;2022-08-23T15:11:10;0.88;;;0.70;;
35893;SDS011;21994;48.204;16.516;2022-08-23T15:13:39;1.15;;;1.00;;
35893;SDS011;21994;48.204;16.516;2022-08-23T15:16:06;1.52;;;1.20;;
35893;SDS011;21994;48.204;16.516;2022-08-23T15:18:34;0.88;;;0.70;;
35893;SDS011;21994;48.204;16.516;2022-08-23T15:21:02;1.33;;;0.80;;
35893;SDS011;21994;48.204;16.516;2022-08-23T15:23:28;1.75;;;0.93;;
35893;SDS011;21994;48.204;16.516;2022-08-23T15:25:54;2.38;;;0.93;;
35893;SDS011;21994;48.204;16.516;2022-08-23T15:28:21;1.63;;;1.10;;
35893;SDS011;21994;48.204;16.516;2022-08-23T15:30:48;1.17;;;1.08;;
35893;SDS011;21994;48.204;16.516;2022-08-23T15:33:16;1.23;;;0.73;;
35893;SDS011;21994;48.204;16.516;2022-08-23T15:35:48;2.85;;;0.88;;
35893;SDS011;21994;48.204;16.516;2022-08-23T15:38:19;1.73;;;1.02;;
35893;SDS011;21994;48.204;16.516;2022-08-23T15:40:49;2.08;;;1.20;;
35893;SDS011;21994;48.204;16.516;2022-08-23T15:43:16;0.98;;;0.85;;
35893;SDS011;21994;48.204;16.516;2022-08-23T15:45:44;0.98;;;0.80;;
35893;SDS011;21994;48.204;16.516;2022-08-23T15:48:12;1.90;;;0.90;;
35893;SDS011;21994;48.204;16.516;2022-08-23T15:53:19;1.05;;;0.70;;
35893;SDS011;21994;48.204;16.516;2022-08-23T15:55:46;1.95;;;0.90;;
35893;SDS011;21994;48.204;16.516;2022-08-23T15:58:15;1.83;;;0.95;;
35893;SDS011;21994;48.204;16.516;2022-08-23T16:00:48;1.77;;;0.93;;
35893;SDS011;21994;48.204;16.516;2022-08-23T16:03:16;1.95;;;1.15;;
35893;SDS011;21994;48.204;16.516;2022-08-23T16:05:45;1.58;;;0.85;;
35893;SDS011;21994;48.204;16.516;2022-08-23T16:08:18;0.77;;;0.65;;
35893;SDS011;21994;48.204;16.516;2022-08-23T16:10:54;0.88;;;0.55;;
35893;SDS011;21994;48.204;16.516;2022-08-23T16:13:21;1.40;;;0.70;;
35893;SDS011;21994;48.204;16.516;2022-08-23T16:15:48;1.23;;;0.85;;
35893;SDS011;21994;48.204;16.516;2022-08-23T16:18:15;2.22;;;1.00;;
35893;SDS011;21994;48.204;16.516;2022-08-23T16:20:41;0.93;;;0.82;;
35893;SDS011;21994;48.204;16.516;2022-08-23T16:23:07;0.75;;;0.57;;
35893;SDS011;21994;48.204;16.516;2022-08-23T16:25:33;1.35;;;0.70;;
35893;SDS011;21994;48.204;16.516;2022-08-23T16:28:00;1.13;;;0.93;;
35893;SDS011;21994;48.204;16.516;2022-08-23T16:30:26;0.90;;;0.85;;
35893;SDS011;21994;48.204;16.516;2022-08-23T16:32:53;1.48;;;0.85;;
35893;SDS011;21994;48.204;16.516;2022-08-23T16:35:20;1.25;;;0.68;;
35893;SDS011;21994;48.204;16.516;2022-08-23T16:37:46;1.52;;;1.10;;
35893;SDS011;21994;48.204;16.516;2022-08-23T16:40:12;1.20;;;1.05;;
35893;SDS011;21994;48.204;16.516;2022-08-23T16:42:39;2.15;;;1.25;;
35893;SDS011;21994;48.204;16.516;2022-08-23T16:45:05;1.30;;;1.05;;
35893;SDS011;21994;48.204;16.516;2022-08-23T16:47:34;2.05;;;1.13;;
35893;SDS011;21994;48.204;16.516;2022-08-23T16:50:05;1.50;;;1.10;;
35893;SDS011;21994;48.204;16.516;2022-08-23T16:52:31;2.65;;;1.58;;
35893;SDS011;21994;48.204;16.516;2022-08-23T16:54:59;1.55;;;1.00;;
35893;SDS011;21994;48.204;16.516;2022-08-23T16:57:39;1.63;;;1.30;;
35893;SDS011;21994;48.204;16.516;2022-08-23T17:00:06;1.92;;;1.40;;
35893;SDS011;21994;48.204;16.516;2022-08-23T17:02:36;2.10;;;1.35;;
35893;SDS011;21994;48.204;16.516;2022-08-23T17:05:04;2.75;;;1.50;;
35893;SDS011;21994;48.204;16.516;2022-08-23T17:07:33;1.65;;;1.27;;
35893;SDS011;21994;48.204;16.516;2022-08-23T17:09:59;1.67;;;1.40;;
35893;SDS011;21994;48.204;16.516;2022-08-23T17:12:25;1.70;;;1.10;;
35893;SDS011;21994;48.204;16.516;2022-08-23T17:14:52;2.00;;;1.25;;